Time;durP1;ratioP1;P1;durP2;ratioP2;P2;SDS_P1;SDS_P2;PMS_P1;PMS_P2;Temp;Humidity;BMP_temperature;BMP_pressure;BME280_temperature;BME280_humidity;BME280_pressure;Samples;Min_cycle;Max_cycle;Signal;HPM_P1;HPM_P2
2022/08/08 00:01:47;;;;;;;;;;;18.00;99.90;;;;;;5076702;28;19912;-73
2022/08/08 00:04:40;;;;;;;;;;;17.90;99.90;;;;;;5076851;28;19939;-73
2022/08/08 00:07:11;;;;;;;;;;;17.90;99.90;;;;;;5076721;28;20382;-73
2022/08/08 00:09:49;;;;;;;;;;;18.00;99.90;;;;;;5094921;28;20298;-73
2022/08/08 00:12:19;;;;;;;;;;;17.90;99.90;;;;;;5076399;28;19910;-73
2022/08/08 00:15:02;;;;;;;;;;;17.90;99.90;;;;;;5094572;28;19904;-73
2022/08/08 00:17:39;;;;;;;;;;;17.90;99.90;;;;;;5076266;28;19904;-73
2022/08/08 00:20:06;;;;;;;;;;;17.90;99.90;;;;;;5076190;28;19907;-73
2022/08/08 00:22:41;;;;;;;;;;;17.90;99.90;;;;;;5094329;28;19987;-73
2022/08/08 00:25:15;;;;;;;;;;;17.90;99.90;;;;;;5094578;28;19911;-73
2022/08/08 00:27:41;;;;;;;;;;;17.90;99.90;;;;;;5094608;28;19979;-73
2022/08/08 00:30:08;;;;;;;;;;;17.90;99.90;;;;;;5094312;28;19910;-73
2022/08/08 00:32:49;;;;;;;;;;;17.90;99.90;;;;;;5094513;28;19910;-73
2022/08/08 00:35:27;;;;;;;;;;;17.90;99.90;;;;;;5075980;28;20350;-73
2022/08/08 00:38:03;;;;;;;;;;;17.80;99.90;;;;;;5094170;28;19908;-73
2022/08/08 00:40:29;;;;;;;;;;;17.90;99.90;;;;;;5094373;28;20405;-73
2022/08/08 00:43:13;;;;;;;;;;;17.80;99.90;;;;;;5075936;28;19908;-74
2022/08/08 00:45:38;;;;;;;;;;;17.80;99.90;;;;;;5094011;28;19969;-72
2022/08/08 00:48:08;;;;;;;;;;;17.80;99.90;;;;;;5075916;28;19904;-73
2022/08/08 00:50:39;;;;;;;;;;;17.80;99.90;;;;;;5075914;28;19907;-73
2022/08/08 00:53:14;;;;;;;;;;;17.80;99.90;;;;;;5094260;28;20394;-73
2022/08/08 00:55:41;;;;;;;;;;;17.80;99.90;;;;;;5093909;28;20363;-72
2022/08/08 00:58:30;;;;;;;;;;;17.80;99.90;;;;;;5075699;28;19907;-73
2022/08/08 01:01:08;;;;;;;;;;;17.80;99.90;;;;;;5067520;28;19908;-73
2022/08/08 01:03:54;;;;;;;;;;;17.80;99.90;;;;;;5075750;28;19939;-73
2022/08/08 01:06:34;;;;;;;;;;;17.80;99.90;;;;;;5093750;28;20277;-72
2022/08/08 01:09:19;;;;;;;;;;;17.90;99.90;;;;;;5075982;28;19911;-73
2022/08/08 01:12:03;;;;;;;;;;;17.80;99.90;;;;;;5075574;28;20280;-73
2022/08/08 01:14:41;;;;;;;;;;;17.80;99.90;;;;;;5093790;28;19940;-74
2022/08/08 01:17:18;;;;;;;;;;;17.80;99.90;;;;;;5093692;28;19910;-73
2022/08/08 01:20:01;;;;;;;;;;;17.70;99.90;;;;;;5075580;28;19915;-73
2022/08/08 01:22:45;;;;;;;;;;;17.70;99.90;;;;;;5093851;28;19986;-73
2022/08/08 01:25:23;;;;;;;;;;;17.60;99.90;;;;;;5093609;28;19904;-73
2022/08/08 01:28:07;;;;;;;;;;;17.60;99.90;;;;;;5093678;28;19904;-73
2022/08/08 01:30:48;;;;;;;;;;;17.60;99.90;;;;;;5075451;28;19912;-73
2022/08/08 01:33:25;;;;;;;;;;;17.60;99.90;;;;;;5093604;28;19911;-73
2022/08/08 01:35:51;;;;;;;;;;;17.60;99.90;;;;;;5075383;28;19947;-72
2022/08/08 01:38:35;;;;;;;;;;;17.60;99.90;;;;;;5075479;28;19939;-73
2022/08/08 01:41:09;;;;;;;;;;;17.60;99.90;;;;;;5093446;28;19908;-73
2022/08/08 01:43:48;;;;;;;;;;;17.60;99.90;;;;;;5093530;28;20002;-73
2022/08/08 01:46:32;;;;;;;;;;;17.60;99.90;;;;;;5075307;28;19994;-72
2022/08/08 01:49:06;;;;;;;;;;;17.60;99.90;;;;;;5093966;28;19904;-69
2022/08/08 01:51:38;;;;;;;;;;;17.60;99.90;;;;;;5075329;28;20338;-69
2022/08/08 01:54:11;;;;;;;;;;;17.60;99.90;;;;;;5075295;28;19904;-69
2022/08/08 01:56:55;;;;;;;;;;;17.60;99.90;;;;;;5075220;28;19904;-69
2022/08/08 01:59:30;;;;;;;;;;;17.50;99.90;;;;;;5093558;28;20356;-69
2022/08/08 02:02:22;;;;;;;;;;;17.50;99.90;;;;;;5093573;28;19957;-69
2022/08/08 02:04:57;;;;;;;;;;;17.50;99.90;;;;;;5052300;28;20310;-69
2022/08/08 02:07:27;;;;;;;;;;;17.60;99.90;;;;;;5075116;28;19957;-69
2022/08/08 02:10:12;;;;;;;;;;;17.60;99.90;;;;;;5093901;28;19908;-70
2022/08/08 02:12:47;;;;;;;;;;;17.50;99.90;;;;;;5097158;28;19940;-70
2022/08/08 02:15:32;;;;;;;;;;;17.40;99.90;;;;;;5097068;28;19914;-70
2022/08/08 02:18:11;;;;;;;;;;;17.40;99.90;;;;;;5096896;28;19900;-70
2022/08/08 02:20:41;;;;;;;;;;;17.40;99.90;;;;;;5078497;28;19934;-70
2022/08/08 02:23:06;;;;;;;;;;;17.40;99.90;;;;;;5096649;28;20265;-69
2022/08/08 02:25:35;;;;;;;;;;;17.40;99.90;;;;;;5096606;28;19911;-70
2022/08/08 02:28:12;;;;;;;;;;;17.40;99.90;;;;;;5078753;28;19904;-69
2022/08/08 02:30:56;;;;;;;;;;;17.30;99.90;;;;;;5096568;28;19904;-69
2022/08/08 02:33:40;;;;;;;;;;;17.30;99.90;;;;;;5096484;28;19904;-69
2022/08/08 02:36:24;;;;;;;;;;;17.30;99.90;;;;;;5078845;28;19904;-69
2022/08/08 02:38:58;;;;;;;;;;;17.30;99.90;;;;;;5096931;28;19904;-69
2022/08/08 02:41:32;;;;;;;;;;;17.30;99.90;;;;;;5096598;28;19958;-69
2022/08/08 02:43:58;;;;;;;;;;;17.20;99.90;;;;;;5078378;28;19969;-69
2022/08/08 02:46:26;;;;;;;;;;;17.20;99.90;;;;;;5096456;28;20360;-70
2022/08/08 02:49:03;;;;;;;;;;;17.20;99.90;;;;;;5078370;28;19911;-69
2022/08/08 02:51:55;;;;;;;;;;;17.20;99.90;;;;;;5096772;28;19904;-69
2022/08/08 02:54:29;;;;;;;;;;;17.20;99.90;;;;;;5096424;28;19927;-69
2022/08/08 02:56:58;;;;;;;;;;;17.20;99.90;;;;;;5077852;28;19911;-69
2022/08/08 02:59:39;;;;;;;;;;;17.20;99.90;;;;;;5077828;28;19907;-69
2022/08/08 03:02:10;;;;;;;;;;;17.10;99.90;;;;;;5096246;28;20272;-69
2022/08/08 03:04:35;;;;;;;;;;;17.10;99.90;;;;;;5077981;28;19918;-70
2022/08/08 03:07:24;;;;;;;;;;;17.10;99.90;;;;;;5095779;28;19904;-70
2022/08/08 03:10:08;;;;;;;;;;;17.10;99.90;;;;;;5069399;28;19958;-69
2022/08/08 03:12:46;;;;;;;;;;;17.10;99.90;;;;;;5077528;28;19904;-70
2022/08/08 03:15:14;;;;;;;;;;;17.10;99.90;;;;;;5095653;28;19999;-70
2022/08/08 03:17:59;;;;;;;;;;;17.10;99.90;;;;;;5077517;28;20288;-70
2022/08/08 03:20:25;;;;;;;;;;;17.10;99.90;;;;;;5077318;28;19915;-70
2022/08/08 03:22:51;;;;;;;;;;;17.10;99.90;;;;;;5094695;28;19904;-69
2022/08/08 03:25:19;;;;;;;;;;;17.10;99.90;;;;;;5095440;28;19904;-70
2022/08/08 03:27:44;;;;;;;;;;;17.10;99.90;;;;;;5077267;28;19990;-69
2022/08/08 03:30:11;;;;;;;;;;;17.10;99.90;;;;;;5077250;28;20004;-70
2022/08/08 03:35:22;;;;;;;;;;;17.10;99.90;;;;;;5095884;28;20367;-70
2022/08/08 03:37:48;;;;;;;;;;;17.10;99.90;;;;;;5095547;28;19904;-69
2022/08/08 03:40:14;;;;;;;;;;;17.10;99.90;;;;;;5077163;28;20128;-69
2022/08/08 03:42:40;;;;;;;;;;;17.00;99.90;;;;;;5076975;28;19904;-69
2022/08/08 03:45:13;;;;;;;;;;;17.00;99.90;;;;;;5095031;28;19929;-70
2022/08/08 03:47:39;;;;;;;;;;;16.90;99.90;;;;;;5095349;28;19907;-70
2022/08/08 03:50:13;;;;;;;;;;;17.00;99.90;;;;;;5076889;28;20249;-69
2022/08/08 03:52:39;;;;;;;;;;;17.00;99.90;;;;;;5095239;28;19904;-69
2022/08/08 03:55:07;;;;;;;;;;;16.90;99.90;;;;;;5076754;28;19904;-69
2022/08/08 03:57:34;;;;;;;;;;;16.90;99.90;;;;;;5094979;28;19915;-69
2022/08/08 03:59:59;;;;;;;;;;;16.80;99.90;;;;;;5076819;28;19915;-69
2022/08/08 04:02:25;;;;;;;;;;;16.80;99.90;;;;;;5076564;28;19904;-69
2022/08/08 04:04:51;;;;;;;;;;;16.70;99.90;;;;;;5076629;28;19904;-70
2022/08/08 04:07:16;;;;;;;;;;;16.70;99.90;;;;;;5094930;28;19916;-69
2022/08/08 04:09:54;;;;;;;;;;;16.80;99.90;;;;;;5095252;28;19955;-69
2022/08/08 04:12:20;;;;;;;;;;;16.80;99.90;;;;;;5094787;28;19904;-69
2022/08/08 04:14:45;;;;;;;;;;;16.80;99.90;;;;;;5076444;28;19904;-69
2022/08/08 04:17:11;;;;;;;;;;;16.80;99.90;;;;;;5076347;28;19958;-69
2022/08/08 04:19:36;;;;;;;;;;;16.80;99.90;;;;;;5076233;28;19904;-69
2022/08/08 04:22:02;;;;;;;;;;;16.80;99.90;;;;;;5094428;28;19958;-70
2022/08/08 04:24:27;;;;;;;;;;;16.80;99.90;;;;;;5076199;28;20368;-69
2022/08/08 04:26:53;;;;;;;;;;;16.80;99.90;;;;;;5076123;28;19995;-69
2022/08/08 04:29:18;;;;;;;;;;;16.80;99.90;;;;;;5076144;28;20046;-69
2022/08/08 04:31:44;;;;;;;;;;;16.80;99.90;;;;;;5094371;28;19994;-70
2022/08/08 04:34:10;;;;;;;;;;;16.80;99.90;;;;;;5094078;28;19999;-69
2022/08/08 04:36:35;;;;;;;;;;;16.80;99.90;;;;;;5076302;28;19904;-69
2022/08/08 04:39:02;;;;;;;;;;;16.80;99.90;;;;;;5094560;28;19908;-69
2022/08/08 04:41:28;;;;;;;;;;;16.80;99.90;;;;;;5094070;28;19908;-69
2022/08/08 04:43:53;;;;;;;;;;;16.70;99.90;;;;;;5094390;28;20007;-70
2022/08/08 04:46:19;;;;;;;;;;;16.70;99.90;;;;;;5094028;28;19949;-69
2022/08/08 04:48:44;;;;;;;;;;;16.70;99.90;;;;;;5094068;28;19904;-69
2022/08/08 04:51:10;;;;;;;;;;;16.60;99.90;;;;;;5075954;28;20376;-69
2022/08/08 04:53:36;;;;;;;;;;;16.50;99.90;;;;;;5094054;28;20367;-69
2022/08/08 04:56:02;;;;;;;;;;;16.40;99.90;;;;;;5093939;28;19904;-69
2022/08/08 04:58:27;;;;;;;;;;;16.30;99.90;;;;;;5094250;28;19904;-70
2022/08/08 05:00:53;;;;;;;;;;;16.30;99.90;;;;;;5075814;28;20364;-69
2022/08/08 05:03:18;;;;;;;;;;;16.20;99.90;;;;;;5093942;28;19904;-69
2022/08/08 05:05:44;;;;;;;;;;;16.10;99.90;;;;;;5075611;28;19912;-69
2022/08/08 05:08:12;;;;;;;;;;;16.10;99.90;;;;;;5075806;28;19912;-69
2022/08/08 05:10:38;;;;;;;;;;;16.10;99.90;;;;;;5094121;28;19910;-69
2022/08/08 05:13:03;;;;;;;;;;;16.10;99.90;;;;;;5076016;28;20002;-69
2022/08/08 05:15:29;;;;;;;;;;;16.10;99.90;;;;;;5075669;28;19904;-70
2022/08/08 05:17:54;;;;;;;;;;;16.10;99.90;;;;;;5093684;28;19910;-69
2022/08/08 05:20:20;;;;;;;;;;;16.20;99.90;;;;;;5093689;28;20320;-69
2022/08/08 05:22:47;;;;;;;;;;;16.20;99.90;;;;;;5075920;28;19999;-69
2022/08/08 05:25:12;;;;;;;;;;;16.30;99.90;;;;;;5093932;28;19908;-69
2022/08/08 05:27:38;;;;;;;;;;;16.40;99.90;;;;;;5075979;28;19911;-69
2022/08/08 05:30:03;;;;;;;;;;;16.50;99.90;;;;;;5075600;28;19903;-69
2022/08/08 05:32:29;;;;;;;;;;;16.50;99.90;;;;;;5093678;28;19904;-69
2022/08/08 05:34:57;;;;;;;;;;;16.60;99.90;;;;;;5075526;28;19904;-69
2022/08/08 05:37:24;;;;;;;;;;;16.70;99.90;;;;;;5075363;28;19914;-69
2022/08/08 05:39:51;;;;;;;;;;;16.70;99.90;;;;;;5075353;28;19907;-70
2022/08/08 05:42:16;;;;;;;;;;;16.70;99.90;;;;;;5075795;28;19994;-70
2022/08/08 05:44:47;;;;;;;;;;;16.70;99.90;;;;;;5075454;28;19947;-70
2022/08/08 05:47:13;;;;;;;;;;;16.70;99.90;;;;;;5097296;28;20020;-70
2022/08/08 05:49:39;;;;;;;;;;;16.70;99.90;;;;;;5079264;28;20352;-70
2022/08/08 05:52:05;;;;;;;;;;;16.80;99.90;;;;;;5079208;28;20271;-70
2022/08/08 05:54:30;;;;;;;;;;;16.80;99.90;;;;;;5097650;28;19908;-70
2022/08/08 05:56:56;;;;;;;;;;;16.90;99.90;;;;;;5079041;28;20352;-70
2022/08/08 05:59:23;;;;;;;;;;;16.90;99.90;;;;;;5097518;28;20320;-70
2022/08/08 06:01:51;;;;;;;;;;;16.90;99.90;;;;;;5097691;28;19908;-72
2022/08/08 06:04:17;;;;;;;;;;;16.90;99.90;;;;;;5097156;28;19904;-70
2022/08/08 06:06:44;;;;;;;;;;;17.00;99.90;;;;;;5096945;28;19915;-70
2022/08/08 06:09:10;;;;;;;;;;;17.00;99.90;;;;;;5078824;28;19910;-69
2022/08/08 06:11:37;;;;;;;;;;;17.00;99.90;;;;;;5096855;28;20296;-70
2022/08/08 06:14:06;;;;;;;;;;;17.00;99.90;;;;;;5078688;28;19908;-70
2022/08/08 06:16:35;;;;;;;;;;;17.10;99.90;;;;;;5096866;28;19904;-70
2022/08/08 06:19:01;;;;;;;;;;;17.10;99.90;;;;;;5078758;28;19904;-70
2022/08/08 06:21:27;;;;;;;;;;;17.20;99.90;;;;;;5078487;28;19908;-70
2022/08/08 06:23:53;;;;;;;;;;;17.20;99.90;;;;;;5078724;28;19904;-70
2022/08/08 06:26:20;;;;;;;;;;;17.30;99.90;;;;;;5078824;28;20322;-71
2022/08/08 06:28:57;;;;;;;;;;;17.30;99.90;;;;;;5079689;28;19911;-70
2022/08/08 06:31:24;;;;;;;;;;;17.40;99.90;;;;;;5096896;28;19989;-70
2022/08/08 06:33:56;;;;;;;;;;;17.40;99.90;;;;;;5096519;28;19904;-70
2022/08/08 06:36:37;;;;;;;;;;;17.50;99.90;;;;;;5096452;28;19904;-70
2022/08/08 06:39:03;;;;;;;;;;;17.50;99.90;;;;;;5078257;28;19908;-70
2022/08/08 06:41:33;;;;;;;;;;;17.60;99.90;;;;;;5078163;28;19907;-70
2022/08/08 06:44:01;;;;;;;;;;;17.60;99.90;;;;;;5096654;28;19911;-70
2022/08/08 06:46:26;;;;;;;;;;;17.60;99.90;;;;;;5096262;28;20348;-70
2022/08/08 06:48:52;;;;;;;;;;;17.60;99.90;;;;;;5096207;28;19903;-70
2022/08/08 06:51:19;;;;;;;;;;;17.60;99.90;;;;;;5096216;28;19904;-70
2022/08/08 06:53:45;;;;;;;;;;;17.60;99.90;;;;;;5096180;28;19958;-70
2022/08/08 06:56:10;;;;;;;;;;;17.60;99.90;;;;;;5077708;28;19949;-70
2022/08/08 06:58:36;;;;;;;;;;;17.60;99.90;;;;;;5078155;28;20397;-70
2022/08/08 07:01:03;;;;;;;;;;;17.60;99.90;;;;;;5077911;28;19930;-71
2022/08/08 07:03:38;;;;;;;;;;;17.60;99.90;;;;;;5077857;28;19911;-70
2022/08/08 07:06:08;;;;;;;;;;;17.60;99.90;;;;;;5077575;28;20011;-70
2022/08/08 07:08:37;;;;;;;;;;;17.60;99.90;;;;;;5095851;28;19955;-70
2022/08/08 07:11:03;;;;;;;;;;;17.70;99.90;;;;;;5096194;28;20318;-70
2022/08/08 07:13:35;;;;;;;;;;;17.70;99.90;;;;;;5095843;28;20318;-70
2022/08/08 07:16:11;;;;;;;;;;;17.70;99.90;;;;;;5077894;28;20006;-70
2022/08/08 07:18:56;;;;;;;;;;;17.80;99.90;;;;;;5077653;28;19904;-70
2022/08/08 07:21:22;;;;;;;;;;;17.70;99.90;;;;;;5095574;28;19908;-70
2022/08/08 07:23:48;;;;;;;;;;;17.70;99.90;;;;;;5095684;28;19904;-70
2022/08/08 07:26:15;;;;;;;;;;;17.80;99.90;;;;;;5095525;28;19904;-70
2022/08/08 07:28:42;;;;;;;;;;;17.80;99.90;;;;;;5077420;28;19955;-70
2022/08/08 07:31:07;;;;;;;;;;;17.80;99.90;;;;;;5077662;28;20284;-70
2022/08/08 07:33:34;;;;;;;;;;;17.80;99.90;;;;;;5095825;28;19908;-70
2022/08/08 07:36:00;;;;;;;;;;;17.80;99.90;;;;;;5077232;28;19908;-70
2022/08/08 07:38:29;;;;;;;;;;;17.80;99.90;;;;;;5077130;28;20322;-70
2022/08/08 07:40:59;;;;;;;;;;;17.80;99.90;;;;;;5095174;28;19915;-70
2022/08/08 07:43:24;;;;;;;;;;;17.80;99.90;;;;;;5076998;28;19911;-70
2022/08/08 07:45:50;;;;;;;;;;;17.70;99.90;;;;;;5076972;28;19904;-70
2022/08/08 07:48:15;;;;;;;;;;;17.70;99.90;;;;;;5095123;28;19904;-70
2022/08/08 07:50:42;;;;;;;;;;;17.80;99.90;;;;;;5078220;28;20341;-73
2022/08/08 07:53:28;;;;;;;;;;;17.70;99.90;;;;;;5095870;28;19904;-74
2022/08/08 07:55:56;;;;;;;;;;;17.70;99.90;;;;;;5095342;28;19953;-73
2022/08/08 07:58:31;;;;;;;;;;;17.80;99.90;;;;;;5096231;28;19904;-74
2022/08/08 08:01:04;;;;;;;;;;;17.80;99.90;;;;;;5077945;28;19916;-74
2022/08/08 08:03:35;;;;;;;;;;;17.70;99.90;;;;;;5096669;28;19994;-74
2022/08/08 08:06:03;;;;;;;;;;;17.70;99.90;;;;;;5095488;28;20292;-74
2022/08/08 08:08:38;;;;;;;;;;;17.70;99.90;;;;;;5095409;28;19915;-74
2022/08/08 08:11:05;;;;;;;;;;;17.60;99.90;;;;;;5077886;28;19908;-74
2022/08/08 08:13:31;;;;;;;;;;;17.60;99.90;;;;;;5078404;28;19904;-74
2022/08/08 08:15:56;;;;;;;;;;;17.60;99.90;;;;;;5078004;28;19904;-74
2022/08/08 08:18:23;;;;;;;;;;;17.60;99.90;;;;;;5095503;28;19911;-74
2022/08/08 08:20:50;;;;;;;;;;;17.50;99.90;;;;;;5077118;28;20421;-74
2022/08/08 08:23:16;;;;;;;;;;;17.60;99.90;;;;;;5077636;28;19904;-73
2022/08/08 08:25:41;;;;;;;;;;;17.60;99.90;;;;;;5094926;28;20450;-74
2022/08/08 08:28:07;;;;;;;;;;;17.60;99.90;;;;;;5095537;28;19990;-74
2022/08/08 08:30:34;;;;;;;;;;;17.60;99.90;;;;;;5096163;28;19951;-74
2022/08/08 08:32:59;;;;;;;;;;;17.60;99.90;;;;;;5095356;28;19911;-73
2022/08/08 08:35:25;;;;;;;;;;;17.60;99.90;;;;;;5077088;28;19904;-74
2022/08/08 08:37:50;;;;;;;;;;;17.70;99.90;;;;;;5095009;28;19953;-74
2022/08/08 08:40:16;;;;;;;;;;;17.70;99.90;;;;;;5095176;28;20002;-74
2022/08/08 08:42:42;;;;;;;;;;;17.70;99.90;;;;;;5076700;28;19904;-73
2022/08/08 08:45:08;;;;;;;;;;;17.80;99.90;;;;;;5094999;28;19904;-74
2022/08/08 08:47:34;;;;;;;;;;;17.80;99.90;;;;;;5094918;28;19907;-74
2022/08/08 08:49:59;;;;;;;;;;;17.80;99.90;;;;;;5077361;28;19993;-74
2022/08/08 08:52:25;;;;;;;;;;;17.80;99.90;;;;;;5077410;28;19953;-74
2022/08/08 08:54:55;;;;;;;;;;;17.90;99.90;;;;;;5077256;28;19908;-74
2022/08/08 08:57:21;;;;;;;;;;;18.00;99.90;;;;;;5094914;28;19961;-73
2022/08/08 08:59:48;;;;;;;;;;;18.00;99.90;;;;;;5094702;28;20326;-73
2022/08/08 09:02:23;;;;;;;;;;;18.10;99.90;;;;;;5076991;28;19908;-74
2022/08/08 09:04:51;;;;;;;;;;;18.10;99.90;;;;;;5076494;28;20367;-74
2022/08/08 09:07:18;;;;;;;;;;;18.20;99.90;;;;;;5095186;28;19916;-74
2022/08/08 09:09:52;;;;;;;;;;;18.20;99.90;;;;;;5094760;28;19911;-74
2022/08/08 09:12:20;;;;;;;;;;;18.30;99.90;;;;;;5076713;28;19904;-73
2022/08/08 09:14:46;;;;;;;;;;;18.50;99.90;;;;;;5095410;28;19919;-74
2022/08/08 09:17:14;;;;;;;;;;;18.60;99.90;;;;;;5094658;28;19991;-74
2022/08/08 09:19:40;;;;;;;;;;;18.70;99.90;;;;;;5097621;28;19912;-74
2022/08/08 09:22:06;;;;;;;;;;;18.80;99.90;;;;;;5081735;28;19904;-73
2022/08/08 09:24:32;;;;;;;;;;;18.90;99.90;;;;;;5100035;28;19904;-74
2022/08/08 09:27:07;;;;;;;;;;;19.00;99.90;;;;;;5098948;28;20386;-74
2022/08/08 09:29:53;;;;;;;;;;;19.00;99.90;;;;;;5099327;28;19983;-74
2022/08/08 09:32:41;;;;;;;;;;;19.10;99.90;;;;;;5069635;28;20242;-74
2022/08/08 09:35:09;;;;;;;;;;;19.10;99.90;;;;;;5071865;28;20360;-73
2022/08/08 09:37:42;;;;;;;;;;;19.20;99.90;;;;;;5080142;28;20042;-73
2022/08/08 09:40:09;;;;;;;;;;;19.30;99.90;;;;;;5080279;28;19991;-73
2022/08/08 09:42:37;;;;;;;;;;;19.30;99.90;;;;;;5080164;28;19939;-73
2022/08/08 09:45:05;;;;;;;;;;;19.40;99.90;;;;;;5079593;28;19904;-74
2022/08/08 09:47:32;;;;;;;;;;;19.50;99.90;;;;;;5097921;28;19957;-73
2022/08/08 09:49:58;;;;;;;;;;;19.60;99.90;;;;;;5080102;28;19965;-73
2022/08/08 09:52:28;;;;;;;;;;;19.90;99.90;;;;;;5081202;28;20368;-74
2022/08/08 09:54:53;;;;;;;;;;;20.20;99.90;;;;;;5098358;28;19955;-74
2022/08/08 09:57:29;;;;;;;;;;;20.50;99.90;;;;;;5097749;28;19904;-73
2022/08/08 09:59:55;;;;;;;;;;;20.70;99.90;;;;;;5079703;28;19995;-73
2022/08/08 10:02:23;;;;;;;;;;;20.80;99.90;;;;;;5079656;28;19904;-74
2022/08/08 10:04:49;;;;;;;;;;;21.00;99.90;;;;;;5097050;28;19908;-73
2022/08/08 10:07:15;;;;;;;;;;;21.20;99.90;;;;;;5079230;28;19911;-74
2022/08/08 10:09:42;;;;;;;;;;;21.30;99.90;;;;;;5078973;28;19957;-74
2022/08/08 10:12:08;;;;;;;;;;;21.30;99.90;;;;;;5078926;28;19904;-73
2022/08/08 10:14:34;;;;;;;;;;;21.30;99.90;;;;;;5097057;28;20443;-74
2022/08/08 10:17:04;;;;;;;;;;;21.30;99.90;;;;;;5097238;28;19940;-73
2022/08/08 10:19:37;;;;;;;;;;;21.20;99.90;;;;;;5079128;28;20303;-73
2022/08/08 10:22:03;;;;;;;;;;;21.10;99.90;;;;;;5096770;28;19912;-73
2022/08/08 10:24:29;;;;;;;;;;;21.10;99.90;;;;;;5078779;28;19911;-73
2022/08/08 10:26:58;;;;;;;;;;;21.10;99.90;;;;;;5096863;28;19904;-73
2022/08/08 10:29:43;;;;;;;;;;;21.00;99.90;;;;;;5078867;28;20326;-73
2022/08/08 10:34:59;;;;;;;;;;;21.00;99.90;;;;;;5097282;28;19991;-73
2022/08/08 10:37:26;;;;;;;;;;;21.00;99.90;;;;;;5096529;28;19904;-74
2022/08/08 10:39:53;;;;;;;;;;;21.00;99.90;;;;;;5097157;28;20378;-74
2022/08/08 10:42:19;;;;;;;;;;;21.10;99.90;;;;;;5096927;28;19904;-73
2022/08/08 10:44:44;;;;;;;;;;;21.20;99.90;;;;;;5078445;28;19989;-73
2022/08/08 10:47:18;;;;;;;;;;;21.30;99.80;;;;;;5096435;28;19910;-72
2022/08/08 10:49:51;;;;;;;;;;;21.40;99.40;;;;;;5078248;28;19911;-73
2022/08/08 10:52:33;;;;;;;;;;;21.50;98.70;;;;;;5096578;28;19910;-72
2022/08/08 10:55:05;;;;;;;;;;;21.50;98.50;;;;;;5078357;28;19987;-73
2022/08/08 10:57:35;;;;;;;;;;;21.30;98.60;;;;;;5078021;28;19934;-73
2022/08/08 11:00:00;;;;;;;;;;;21.40;99.10;;;;;;5077982;28;20398;-74
2022/08/08 11:02:29;;;;;;;;;;;21.40;99.60;;;;;;5096310;28;19904;-73
2022/08/08 11:04:58;;;;;;;;;;;21.50;99.80;;;;;;5096400;28;19987;-73
2022/08/08 11:07:27;;;;;;;;;;;21.60;99.90;;;;;;5096178;28;19920;-73
2022/08/08 11:09:53;;;;;;;;;;;21.70;99.90;;;;;;5096151;28;20380;-73
2022/08/08 11:12:18;;;;;;;;;;;21.90;99.90;;;;;;5096153;28;19966;-74
2022/08/08 11:14:49;;;;;;;;;;;22.10;99.90;;;;;;5096197;28;19918;-74
2022/08/08 11:17:15;;;;;;;;;;;22.20;99.80;;;;;;5077563;28;20321;-74
2022/08/08 11:19:42;;;;;;;;;;;22.30;97.80;;;;;;5078058;28;20323;-74
2022/08/08 11:22:08;;;;;;;;;;;22.30;98.50;;;;;;5095725;28;19908;-73
2022/08/08 11:24:34;;;;;;;;;;;22.40;98.70;;;;;;5077546;28;19947;-74
2022/08/08 11:27:01;;;;;;;;;;;22.60;98.40;;;;;;5077382;28;19904;-74
2022/08/08 11:29:27;;;;;;;;;;;22.60;97.40;;;;;;5077445;28;19927;-74
2022/08/08 11:31:53;;;;;;;;;;;22.50;96.60;;;;;;5095746;28;20560;-73
2022/08/08 11:34:19;;;;;;;;;;;22.30;97.20;;;;;;5095735;28;20301;-74
2022/08/08 11:36:45;;;;;;;;;;;22.30;97.70;;;;;;5077560;28;19939;-74
2022/08/08 11:39:11;;;;;;;;;;;22.30;97.50;;;;;;5095625;28;20367;-74
2022/08/08 11:41:37;;;;;;;;;;;22.40;96.50;;;;;;5077163;28;19908;-74
2022/08/08 11:44:04;;;;;;;;;;;22.50;97.10;;;;;;5076741;28;19933;-74
2022/08/08 11:46:33;;;;;;;;;;;22.70;96.50;;;;;;5095563;28;19946;-74
2022/08/08 11:49:03;;;;;;;;;;;22.90;97.40;;;;;;5095564;28;19904;-74
2022/08/08 11:51:29;;;;;;;;;;;23.10;97.80;;;;;;5095266;28;20288;-73
2022/08/08 11:53:54;;;;;;;;;;;23.40;97.10;;;;;;5095379;28;19911;-74
2022/08/08 11:56:21;;;;;;;;;;;23.60;94.80;;;;;;5095075;28;19904;-73
2022/08/08 11:58:46;;;;;;;;;;;23.90;94.20;;;;;;5095240;28;19904;-73
2022/08/08 12:01:12;;;;;;;;;;;24.10;92.80;;;;;;5094849;28;19911;-73
2022/08/08 12:03:43;;;;;;;;;;;24.20;95.40;;;;;;5094902;28;19904;-73
2022/08/08 12:06:15;;;;;;;;;;;24.40;92.10;;;;;;5076913;28;19962;-73
2022/08/08 12:08:41;;;;;;;;;;;24.50;91.20;;;;;;5076632;28;19933;-74
2022/08/08 12:11:11;;;;;;;;;;;24.40;91.00;;;;;;5094817;28;19904;-73
2022/08/08 12:13:37;;;;;;;;;;;24.30;91.10;;;;;;5076600;28;19912;-74
2022/08/08 12:16:09;;;;;;;;;;;24.20;91.00;;;;;;5076431;28;19904;-72
2022/08/08 12:18:45;;;;;;;;;;;24.10;90.40;;;;;;5076415;28;19927;-73
2022/08/08 12:21:20;;;;;;;;;;;23.90;91.30;;;;;;5076467;28;20392;-74
2022/08/08 12:23:45;;;;;;;;;;;23.80;91.20;;;;;;5094643;28;19904;-73
2022/08/08 12:26:11;;;;;;;;;;;23.80;91.30;;;;;;5076723;28;19904;-73
2022/08/08 12:28:37;;;;;;;;;;;23.80;91.20;;;;;;5094478;28;19988;-72
2022/08/08 12:31:06;;;;;;;;;;;24.10;91.50;;;;;;5094697;28;19907;-73
2022/08/08 12:33:32;;;;;;;;;;;24.30;90.10;;;;;;5076420;28;19904;-72
2022/08/08 12:36:08;;;;;;;;;;;24.60;90.50;;;;;;5076113;28;19911;-72
2022/08/08 12:38:43;;;;;;;;;;;24.90;90.20;;;;;;5094548;28;19912;-75
2022/08/08 12:41:11;;;;;;;;;;;25.20;90.20;;;;;;5093920;28;19962;-74
2022/08/08 12:43:37;;;;;;;;;;;25.50;88.40;;;;;;5076585;28;19915;-73
2022/08/08 12:46:12;;;;;;;;;;;25.90;83.90;;;;;;5093594;28;19912;-72
2022/08/08 12:48:37;;;;;;;;;;;25.80;78.10;;;;;;5075007;28;19908;-71
2022/08/08 12:51:03;;;;;;;;;;;25.70;73.30;;;;;;5074551;28;19904;-72
2022/08/08 12:53:29;;;;;;;;;;;25.50;76.00;;;;;;5072292;28;19911;-71
2022/08/08 12:56:05;;;;;;;;;;;25.70;80.40;;;;;;5086907;28;20375;-71
2022/08/08 12:58:51;;;;;;;;;;;25.90;83.50;;;;;;5098257;28;19908;-73
2022/08/08 13:01:16;;;;;;;;;;;26.00;80.00;;;;;;5078338;28;19940;-73
2022/08/08 13:03:46;;;;;;;;;;;26.00;75.00;;;;;;5077433;28;19912;-73
2022/08/08 13:06:13;;;;;;;;;;;25.70;72.00;;;;;;5101500;28;19912;-72
2022/08/08 13:08:50;;;;;;;;;;;25.40;72.30;;;;;;5082532;28;19957;-72
2022/08/08 13:11:23;;;;;;;;;;;25.20;71.00;;;;;;5097175;28;19908;-72
2022/08/08 13:13:49;;;;;;;;;;;25.00;71.80;;;;;;5089710;28;19925;-72
2022/08/08 13:16:24;;;;;;;;;;;24.90;71.10;;;;;;5098515;28;19911;-72
2022/08/08 13:18:50;;;;;;;;;;;24.90;70.50;;;;;;5075741;28;19904;-72
2022/08/08 13:21:15;;;;;;;;;;;25.00;72.80;;;;;;5095046;28;19908;-72
2022/08/08 13:23:41;;;;;;;;;;;25.10;73.80;;;;;;5095922;28;19910;-72
2022/08/08 13:26:07;;;;;;;;;;;25.20;71.00;;;;;;5095806;28;19904;-72
2022/08/08 13:28:33;;;;;;;;;;;25.40;70.10;;;;;;5114656;28;20340;-72
2022/08/08 13:30:59;;;;;;;;;;;25.50;69.00;;;;;;5114251;28;19903;-72
2022/08/08 13:33:25;;;;;;;;;;;25.50;69.50;;;;;;5113944;28;20053;-72
2022/08/08 13:35:51;;;;;;;;;;;25.40;69.40;;;;;;5095829;28;19997;-72
2022/08/08 13:38:17;;;;;;;;;;;25.50;68.40;;;;;;5095714;28;19904;-72
2022/08/08 13:40:43;;;;;;;;;;;25.70;71.40;;;;;;5114144;28;19933;-72
2022/08/08 13:43:09;;;;;;;;;;;26.00;72.40;;;;;;5095844;28;19904;-72
2022/08/08 13:45:35;;;;;;;;;;;26.30;71.50;;;;;;5095582;28;20375;-72
2022/08/08 13:48:01;;;;;;;;;;;26.50;71.40;;;;;;5113839;28;19912;-72
2022/08/08 13:50:31;;;;;;;;;;;26.70;72.20;;;;;;5113873;28;19904;-73
2022/08/08 13:52:56;;;;;;;;;;;27.00;73.80;;;;;;5114603;28;20356;-70
2022/08/08 13:55:24;;;;;;;;;;;26.90;77.10;;;;;;5114264;28;19904;-69
2022/08/08 13:57:51;;;;;;;;;;;27.00;76.60;;;;;;5113962;28;19904;-70
2022/08/08 14:00:19;;;;;;;;;;;27.00;75.60;;;;;;5095303;28;19912;-70
2022/08/08 14:02:58;;;;;;;;;;;27.20;73.40;;;;;;5113730;28;20337;-70
2022/08/08 14:05:32;;;;;;;;;;;27.20;82.10;;;;;;5095384;28;19912;-70
2022/08/08 14:07:58;;;;;;;;;;;27.30;75.60;;;;;;5117203;28;19907;-69
2022/08/08 14:10:24;;;;;;;;;;;27.30;69.40;;;;;;5117434;28;19954;-70
2022/08/08 14:12:50;;;;;;;;;;;27.20;71.90;;;;;;5099067;28;19955;-70
2022/08/08 14:15:31;;;;;;;;;;;27.30;74.10;;;;;;5098984;28;19904;-70
2022/08/08 14:18:00;;;;;;;;;;;27.50;69.80;;;;;;5117598;28;20348;-69
2022/08/08 14:20:30;;;;;;;;;;;27.40;72.40;;;;;;5117128;28;20433;-69
2022/08/08 14:23:02;;;;;;;;;;;27.50;67.20;;;;;;5117148;28;19925;-70
2022/08/08 14:25:27;;;;;;;;;;;27.40;63.40;;;;;;5117370;28;19908;-68
2022/08/08 14:27:53;;;;;;;;;;;27.30;63.30;;;;;;5117093;28;19914;-69
2022/08/08 14:30:18;;;;;;;;;;;27.00;65.80;;;;;;5117299;28;20005;-69
2022/08/08 14:32:51;;;;;;;;;;;27.00;66.50;;;;;;5098968;28;19904;-69
2022/08/08 14:35:18;;;;;;;;;;;27.00;66.10;;;;;;5117418;28;20370;-68
2022/08/08 14:37:45;;;;;;;;;;;27.20;63.90;;;;;;5116868;28;19914;-71